• Join FlightAware (Why Join?)
  • Login
  • US Flag 
05:51AM EDT


 

Airport Tracker/Info


-or-


 

Live Flight TrackerFlight Track Log ✈ UAL5882 ✈ 18-Jun-2013 ✈ KPIA - KORD

Flight Track Log - Related Links

Times and Time Zones

All times are in EDT time to prevent confusion due to time zone crossing. See the UAL5882 flight status page for this flight to view local times or setup timezone preferences in your user account.

Time Position Orientation Groundspeed Altitude Reporting Facility
EDT Latitude Longitude Course Direction KTS MPH feet Rate Location/Type
11:06AM 40.6972 -89.6508 14° North 178 205 11,000  Level Chicago Center
11:07AM 40.7492 -89.6469 North 204 235 4,100 -1,860 Descending Chicago Center
11:08AM 40.8361 -89.6339 North 263 303 7,200 2,760 Climbing Chicago Center
11:09AM 40.9103 -89.6233 North 265 305 9,800 1,620 Climbing Chicago Center
11:10AM 40.9778 -89.5514 39° Northeast 323 372 10,600 480 Climbing Chicago Center
11:11AM 41.0184 -89.6050 14° North  Level FlightAware Approximate
11:11AM 41.0444 -89.4472 50° Northeast 357 411 10,900  Level Chicago Center
11:12AM 41.1122 -89.3392 50° Northeast 376 433 10,900  Level Chicago Center
11:13AM 41.1792 -89.2294 51° Northeast 383 441 10,900  Level Chicago Center
11:14AM 41.2617 -89.0975 50° Northeast 388 447 10,900  Level Chicago Center
11:15AM 41.3294 -88.9875 51° Northeast 387 445 10,900  Level Chicago Center
11:16AM 41.3975 -88.8769 51° Northeast 387 445 10,900  Level Chicago Center
11:17AM 41.4658 -88.7661 51° Northeast 388 447 11,000  Climbing Chicago Center
11:18AM 41.5217 -88.6750 51° Northeast 327 376 11,000  Level Chicago Center
11:19AM 41.5744 -88.5881 51° Northeast 303 349 11,000 -540 Level Chicago Center
11:21AM 41.6906 -88.3975 51° Northeast 299 344 9,400 -960 Descending Chicago Center
11:22AM 41.7600 -88.3642 20° North 283 326 8,200 -1,260 Descending Chicago Center
11:23AM 41.8328 -88.3664 359° North 265 305 6,900 -1,260 Descending Chicago Center
11:24AM 41.9047 -88.3711 357° North 261 300 5,600 -960 Descending Chicago Center
11:25AM 41.9575 -88.3328 28° Northeast 234 269 5,000 -300 Descending Chicago Center
11:26AM 41.9681 -88.2300 82° East 247 284 5,000 -540 Level Chicago Center
11:27AM 41.9678 -88.1447 90° East 236 272 4,000 -1,020 Descending Chicago Center
11:28AM 41.9683 -88.0731 89° East 218 251 2,900 -1,020 Descending Chicago Center
11:29AM 41.9667 -88.0167 92° East 144 166 2,000 -900 Descending Chicago TRACON
11:30AM 41.9667 -87.9667 90° East 133 153 1,300 -780 Descending Chicago TRACON
11:32AM 41.9667 -87.9000 180° South  Level FlightAware Approximate
11:39AM 41.9817 -87.9067 180° South  Level Estimated